Time;durP1;ratioP1;P1;durP2;ratioP2;P2;SDS_P1;SDS_P2;PMS_P1;PMS_P2;Temp;Humidity;BMP_temperature;BMP_pressure;BME280_temperature;BME280_humidity;BME280_pressure;Samples;Min_cycle;Max_cycle;Signal;HPM_P1;HPM_P2
2021/04/03 00:01:47;;;;;;;24.77;17.25;;;;;;;12.40;100.00;100661.28;5018785;28;20142;-75
2021/04/03 00:04:33;;;;;;;25.38;18.08;;;;;;;12.43;100.00;100648.06;5033445;28;20022;-74
2021/04/03 00:07:19;;;;;;;23.02;16.80;;;;;;;12.50;100.00;100641.72;5033106;28;20017;-74
2021/04/03 00:10:34;;;;;;;23.38;17.20;;;;;;;12.81;100.00;100640.00;5018765;28;20030;-74
2021/04/03 00:13:22;;;;;;;23.83;16.75;;;;;;;12.57;100.00;100642.41;5032439;28;20037;-74
2021/04/03 00:16:10;;;;;;;21.85;16.45;;;;;;;12.71;100.00;100648.19;5020077;28;20047;-74
2021/04/03 00:18:55;;;;;;;23.30;16.00;;;;;;;12.60;100.00;100643.22;5018661;28;20096;-74
2021/04/03 00:21:41;;;;;;;21.85;16.17;;;;;;;12.59;100.00;100640.63;5033145;28;20442;-74
2021/04/03 00:24:27;;;;;;;24.27;16.42;;;;;;;12.61;100.00;100642.31;5033062;28;20461;-75
2021/04/03 00:27:13;;;;;;;24.73;17.38;;;;;;;12.96;100.00;100641.34;5019300;28;20021;-74
2021/04/03 00:29:58;;;;;;;23.90;16.90;;;;;;;12.64;100.00;100638.72;5032980;28;20369;-74
2021/04/03 00:32:53;;;;;;;25.55;17.23;;;;;;;12.82;100.00;100627.72;5020051;28;20053;-74
2021/04/03 00:35:41;;;;;;;25.83;17.02;;;;;;;12.85;100.00;100631.13;5035707;28;20036;-74
2021/04/03 00:38:26;;;;;;;22.90;16.60;;;;;;;12.55;100.00;100633.72;5036373;28;20017;-75
2021/04/03 00:41:12;;;;;;;25.52;17.05;;;;;;;12.67;100.00;100622.88;5036378;28;20025;-75
2021/04/03 00:43:58;;;;;;;21.83;16.08;;;;;;;12.46;100.00;100637.44;5036433;28;20047;-75
2021/04/03 00:46:43;;;;;;;19.02;15.02;;;;;;;12.53;100.00;100644.28;5035878;28;20022;-75
2021/04/03 00:49:29;;;;;;;20.25;14.85;;;;;;;12.04;100.00;100650.81;5036279;28;20033;-74
2021/04/03 00:52:16;;;;;;;19.92;13.80;;;;;;;12.16;100.00;100647.88;5036191;28;20108;-74
2021/04/03 00:55:04;;;;;;;19.92;14.23;;;;;;;12.27;100.00;100645.88;5036088;28;20374;-74
2021/04/03 00:57:50;;;;;;;20.10;13.70;;;;;;;12.20;100.00;100653.03;5021509;28;20025;-74
2021/04/03 01:00:37;;;;;;;18.42;13.52;;;;;;;11.95;100.00;100651.03;5035995;28;20049;-75
2021/04/03 01:03:25;;;;;;;20.05;13.70;;;;;;;12.06;100.00;100655.13;5020881;28;20041;-75
2021/04/03 01:06:10;;;;;;;19.27;13.93;;;;;;;12.20;100.00;100647.78;5036678;28;20440;-75
2021/04/03 01:08:56;;;;;;;19.13;13.45;;;;;;;12.10;100.00;100646.28;5036167;28;20040;-75
2021/04/03 01:11:56;;;;;;;18.83;13.25;;;;;;;11.92;100.00;100641.47;5021966;28;20116;-75
2021/04/03 01:14:54;;;;;;;16.98;13.02;;;;;;;11.88;100.00;100649.47;5034927;28;20346;-74
2021/04/03 01:17:58;;;;;;;16.40;13.07;;;;;;;11.86;100.00;100639.00;5036062;28;20150;-74
2021/04/03 01:21:07;;;;;;;15.88;11.80;;;;;;;11.57;100.00;100632.69;5035696;28;20113;-74
2021/04/03 01:24:23;;;;;;;15.82;11.90;;;;;;;12.05;100.00;100621.06;5020750;28;20057;-74
2021/04/03 01:27:17;;;;;;;15.90;11.68;;;;;;;11.59;100.00;100623.00;5021884;28;20029;-74
2021/04/03 01:30:18;;;;;;;15.85;11.38;;;;;;;11.67;100.00;100621.09;5020773;28;20370;-74
2021/04/03 01:33:10;;;;;;;17.88;11.75;;;;;;;11.48;100.00;100635.50;5035559;28;20524;-74
2021/04/03 01:36:05;;;;;;;17.92;11.98;;;;;;;11.23;100.00;100632.56;5036124;28;20114;-74
2021/04/03 01:38:56;;;;;;;15.63;11.07;;;;;;;11.25;100.00;100630.75;5020766;28;20022;-73
2021/04/03 01:41:45;;;;;;;14.88;10.93;;;;;;;11.78;100.00;100635.69;5035644;28;20030;-74
2021/04/03 01:44:35;;;;;;;15.15;10.48;;;;;;;11.53;100.00;100639.75;5034987;28;20068;-74
2021/04/03 01:47:29;;;;;;;16.33;10.85;;;;;;;11.24;100.00;100634.28;5020414;28;20025;-74
2021/04/03 01:50:16;;;;;;;16.15;10.60;;;;;;;11.69;100.00;100641.16;5021613;28;20025;-74
2021/04/03 01:53:02;;;;;;;14.48;10.35;;;;;;;11.84;100.00;100637.31;5035157;28;20469;-74
2021/04/03 01:55:51;;;;;;;16.80;10.90;;;;;;;11.17;100.00;100642.31;5035122;28;20373;-73
2021/04/03 01:58:38;;;;;;;17.10;10.75;;;;;;;11.12;100.00;100636.28;5035141;28;20405;-74
2021/04/03 02:01:25;;;;;;;16.85;10.38;;;;;;;11.07;100.00;100640.78;5034035;28;20046;-74
2021/04/03 02:04:13;;;;;;;18.63;10.50;;;;;;;11.03;100.00;100644.34;5035043;28;20026;-74
2021/04/03 02:07:00;;;;;;;14.23;9.75;;;;;;;11.39;100.00;100646.19;5034072;28;20362;-74
2021/04/03 02:09:47;;;;;;;13.32;9.35;;;;;;;11.32;100.00;100657.72;5035602;28;20029;-75
2021/04/03 02:12:36;;;;;;;15.45;9.68;;;;;;;11.47;100.00;100652.13;5034691;28;20025;-75
2021/04/03 02:15:24;;;;;;;14.57;9.43;;;;;;;11.42;100.00;100644.38;5033590;28;20021;-74
2021/04/03 02:18:11;;;;;;;13.20;9.27;;;;;;;11.29;100.00;100644.69;5034622;28;20060;-74
2021/04/03 02:21:04;;;;;;;11.70;8.20;;;;;;;11.49;100.00;100634.63;5035544;28;20033;-74
2021/04/03 02:23:52;;;;;;;11.73;8.13;;;;;;;10.89;100.00;100646.41;5035555;28;20025;-74
2021/04/03 02:26:38;;;;;;;11.18;8.18;;;;;;;10.85;100.00;100650.81;5034358;28;20037;-74
2021/04/03 02:29:24;;;;;;;9.90;7.47;;;;;;;10.59;100.00;100649.59;5034231;28;20772;-74
2021/04/03 02:32:09;;;;;;;10.02;7.05;;;;;;;11.07;100.00;100639.03;5034394;28;20029;-75
2021/04/03 02:34:55;;;;;;;13.27;7.18;;;;;;;10.64;100.00;100647.78;5034525;28;20022;-75
2021/04/03 02:37:42;;;;;;;8.10;6.45;;;;;;;11.15;100.00;100649.34;5019885;28;20040;-74
2021/04/03 02:40:29;;;;;;;8.77;6.25;;;;;;;10.84;100.00;100651.72;5034287;28;20472;-74
2021/04/03 02:43:27;;;;;;;8.95;6.88;;;;;;;10.74;100.00;100651.94;5033403;28;20425;-74
2021/04/03 02:46:23;;;;;;;7.80;6.20;;;;;;;10.49;100.00;100662.00;5034181;28;20047;-74
2021/04/03 02:49:16;;;;;;;9.98;6.00;;;;;;;10.65;100.00;100655.56;5020638;28;20033;-74
2021/04/03 02:52:04;;;;;;;9.27;6.82;;;;;;;10.42;100.00;100654.28;5033558;28;20048;-73
2021/04/03 02:54:51;;;;;;;10.57;6.15;;;;;;;10.20;100.00;100652.94;5033420;28;20056;-74
2021/04/03 02:57:38;;;;;;;7.38;6.00;;;;;;;10.53;100.00;100654.97;5033370;28;20105;-74
2021/04/03 03:00:25;;;;;;;8.73;6.05;;;;;;;10.38;100.00;100652.59;5033341;28;20357;-74
2021/04/03 03:03:12;;;;;;;8.35;5.78;;;;;;;10.51;100.00;100649.75;5019631;28;20462;-74
2021/04/03 03:05:59;;;;;;;7.60;5.47;;;;;;;10.67;100.00;100653.81;5019319;28;20025;-75
2021/04/03 03:08:46;;;;;;;5.95;4.40;;;;;;;10.53;100.00;100660.19;5034401;28;20025;-74
2021/04/03 03:11:34;;;;;;;7.03;4.80;;;;;;;10.67;100.00;100671.28;5034618;28;20365;-73
2021/04/03 03:14:22;;;;;;;7.97;4.70;;;;;;;10.52;100.00;100659.31;5019840;28;20462;-74
2021/04/03 03:17:09;;;;;;;7.35;5.00;;;;;;;10.60;100.00;100662.66;5035116;28;20119;-74
2021/04/03 03:19:56;;;;;;;6.53;4.38;;;;;;;10.62;100.00;100660.91;5034415;28;20026;-75
2021/04/03 03:22:42;;;;;;;6.45;4.65;;;;;;;10.17;100.00;100651.25;5033680;28;20033;-75
2021/04/03 03:25:28;;;;;;;6.75;3.78;;;;;;;10.23;100.00;100661.59;5018550;28;20065;-74
2021/04/03 03:28:15;;;;;;;5.68;4.03;;;;;;;10.20;100.00;100656.41;5033613;28;20033;-75
2021/04/03 03:31:01;;;;;;;5.28;4.30;;;;;;;10.26;100.00;100648.47;5032922;28;20029;-75
2021/04/03 03:33:47;;;;;;;10.38;4.43;;;;;;;10.31;100.00;100653.59;5034148;28;20029;-75
2021/04/03 03:36:35;;;;;;;5.18;4.28;;;;;;;10.14;100.00;100649.50;5033591;28;20029;-74
2021/04/03 03:39:22;;;;;;;5.05;3.90;;;;;;;10.26;100.00;100651.06;5034569;28;20034;-73
2021/04/03 03:42:08;;;;;;;6.53;4.43;;;;;;;10.07;100.00;100647.03;5033425;28;20092;-74
2021/04/03 03:44:54;;;;;;;5.78;4.28;;;;;;;9.97;100.00;100653.28;5032561;28;20029;-74
2021/04/03 03:47:40;;;;;;;6.40;4.20;;;;;;;10.57;100.00;100654.84;5034226;28;20025;-74
2021/04/03 03:50:26;;;;;;;6.32;3.80;;;;;;;10.49;100.00;100659.38;5033851;28;20044;-75
2021/04/03 03:53:12;;;;;;;6.45;4.00;;;;;;;10.39;100.00;100656.94;5033094;28;20113;-75
2021/04/03 03:55:58;;;;;;;5.88;4.00;;;;;;;10.01;100.00;100660.19;5033618;28;20082;-74
2021/04/03 03:58:44;;;;;;;5.28;3.75;;;;;;;10.20;100.00;100669.50;5033825;28;20029;-73
2021/04/03 04:01:30;;;;;;;6.60;4.70;;;;;;;9.89;100.00;100668.25;5032130;28;20049;-75
2021/04/03 04:04:16;;;;;;;6.40;3.95;;;;;;;10.13;100.00;100670.50;5033574;28;20040;-75
2021/04/03 04:07:02;;;;;;;6.97;4.25;;;;;;;9.78;100.00;100672.78;5034044;28;20037;-73
2021/04/03 04:09:47;;;;;;;7.18;4.35;;;;;;;10.06;100.00;100672.31;5023623;28;20068;-75
2021/04/03 04:12:33;;;;;;;7.63;4.25;;;;;;;10.16;100.00;100678.28;5037460;28;20037;-75
2021/04/03 04:15:19;;;;;;;7.35;4.18;;;;;;;10.15;100.00;100676.56;5037394;28;20114;-76
2021/04/03 04:18:05;;;;;;;5.78;4.30;;;;;;;10.03;100.00;100674.09;5022955;28;20032;-74
2021/04/03 04:20:51;;;;;;;10.40;4.53;;;;;;;10.23;100.00;100679.03;5036892;28;20051;-74
2021/04/03 04:23:37;;;;;;;6.95;4.10;;;;;;;10.12;100.00;100676.59;5036823;28;20446;-75
2021/04/03 04:26:22;;;;;;;7.10;4.10;;;;;;;10.18;100.00;100681.75;5037440;28;20033;-74
2021/04/03 04:29:08;;;;;;;5.72;3.88;;;;;;;9.70;100.00;100682.47;5037037;28;20412;-75
2021/04/03 04:31:54;;;;;;;6.30;4.10;;;;;;;9.88;100.00;100693.53;5036616;28;20030;-75
2021/04/03 04:34:40;;;;;;;4.57;3.72;;;;;;;10.21;100.00;100697.44;5036656;28;20033;-73
2021/04/03 04:37:25;;;;;;;7.78;4.25;;;;;;;10.21;100.00;100689.56;5036513;28;20021;-74
2021/04/03 04:40:13;;;;;;;7.57;4.30;;;;;;;10.46;100.00;100685.63;5036551;28;20031;-74
2021/04/03 04:42:59;;;;;;;6.22;4.22;;;;;;;10.74;100.00;100702.59;5035812;28;20021;-75
2021/04/03 04:45:45;;;;;;;7.65;4.05;;;;;;;10.43;100.00;100695.28;5036376;28;20026;-74
2021/04/03 04:48:31;;;;;;;5.95;4.20;;;;;;;10.37;100.00;100708.50;5021111;28;20040;-74
2021/04/03 04:51:16;;;;;;;5.65;4.00;;;;;;;10.15;100.00;100702.75;5022139;28;20025;-75
2021/04/03 04:54:02;;;;;;;8.05;4.60;;;;;;;10.23;100.00;100700.88;5021924;28;20408;-75
2021/04/03 04:56:48;;;;;;;6.00;4.13;;;;;;;10.32;100.00;100697.25;5035826;28;20028;-74
2021/04/03 04:59:34;;;;;;;7.53;4.90;;;;;;;10.41;100.00;100704.94;5036326;28;20048;-73
2021/04/03 05:02:19;;;;;;;7.68;4.32;;;;;;;10.13;100.00;100706.28;5035815;28;20445;-74
2021/04/03 05:05:06;;;;;;;6.65;4.72;;;;;;;10.52;100.00;100703.84;5036201;28;20052;-75
2021/04/03 05:07:52;;;;;;;7.28;4.55;;;;;;;10.27;100.00;100707.78;5035283;28;20299;-74
2021/04/03 05:10:37;;;;;;;8.32;4.38;;;;;;;10.04;100.00;100695.03;5035936;28;20098;-75
2021/04/03 05:13:23;;;;;;;6.70;4.97;;;;;;;10.24;100.00;100688.66;5035592;28;20021;-75
2021/04/03 05:16:09;;;;;;;10.18;5.20;;;;;;;10.21;100.00;100689.56;5035683;28;20112;-74
2021/04/03 05:18:55;;;;;;;6.82;4.90;;;;;;;10.42;100.00;100686.59;5034531;28;20025;-74
2021/04/03 05:21:41;;;;;;;7.15;4.50;;;;;;;10.70;100.00;100694.81;5036220;28;20028;-75
2021/04/03 05:24:27;;;;;;;10.02;5.25;;;;;;;10.76;100.00;100690.31;5021210;28;20045;-75
2021/04/03 05:27:12;;;;;;;8.52;5.43;;;;;;;11.22;100.00;100698.16;5035182;28;20163;-74
2021/04/03 05:29:58;;;;;;;8.15;4.60;;;;;;;10.88;100.00;100684.84;5035630;28;20036;-75
2021/04/03 05:32:44;;;;;;;8.07;5.63;;;;;;;10.50;100.00;100689.94;5036544;28;20104;-73
2021/04/03 05:35:29;;;;;;;7.70;5.05;;;;;;;10.70;100.00;100682.59;5035548;28;20136;-74
2021/04/03 05:38:15;;;;;;;9.88;5.55;;;;;;;11.01;100.00;100694.19;5035953;28;20021;-74
2021/04/03 05:41:01;;;;;;;7.57;4.70;;;;;;;10.53;100.00;100691.63;5020215;28;20021;-74
2021/04/03 05:43:48;;;;;;;8.18;4.50;;;;;;;10.96;100.00;100689.91;5035075;28;20044;-75
2021/04/03 05:46:34;;;;;;;7.82;5.45;;;;;;;10.97;100.00;100682.03;5035193;28;20540;-75
2021/04/03 05:49:21;;;;;;;9.82;4.95;;;;;;;10.96;100.00;100682.94;5035102;28;20029;-74
2021/04/03 05:52:07;;;;;;;7.50;5.10;;;;;;;11.00;100.00;100689.84;5035703;28;20498;-74
2021/04/03 05:54:53;;;;;;;7.57;4.80;;;;;;;10.82;100.00;100695.44;5034994;28;20136;-75
2021/04/03 05:57:39;;;;;;;10.40;5.10;;;;;;;11.51;100.00;100693.16;5020269;28;20066;-76
2021/04/03 06:00:25;;;;;;;8.82;4.85;;;;;;;11.03;100.00;100705.53;5021035;28;20357;-75
2021/04/03 06:03:10;;;;;;;6.70;4.57;;;;;;;11.40;100.00;100708.25;5034220;28;20053;-74
2021/04/03 06:05:58;;;;;;;7.45;4.93;;;;;;;12.00;100.00;100697.31;5021520;28;20021;-74
2021/04/03 06:08:45;;;;;;;9.07;4.50;;;;;;;10.94;100.00;100708.31;5034957;28;20029;-74
2021/04/03 06:11:42;;;;;;;6.20;4.38;;;;;;;11.07;100.00;100716.81;5034397;28;20037;-74
2021/04/03 06:14:34;;;;;;;7.47;4.65;;;;;;;10.87;100.00;100703.22;5034990;28;20026;-75
2021/04/03 06:17:24;;;;;;;7.07;4.53;;;;;;;11.21;100.00;100705.13;5034672;28;20098;-74
2021/04/03 06:20:10;;;;;;;7.90;4.85;;;;;;;11.59;100.00;100701.72;5035866;28;20156;-74
2021/04/03 06:22:56;;;;;;;9.65;4.50;;;;;;;11.58;100.00;100713.97;5035482;28;20029;-75
2021/04/03 06:25:58;;;;;;;7.80;4.47;;;;;;;11.27;100.00;100712.91;5033757;28;20461;-74
2021/04/03 06:28:47;;;;;;;5.95;4.30;;;;;;;11.23;100.00;100698.13;5019430;28;20370;-74
2021/04/03 06:31:50;;;;;;;7.43;4.72;;;;;;;11.58;100.00;100686.88;5034889;28;20021;-74
2021/04/03 06:34:39;;;;;;;6.90;4.60;;;;;;;10.98;100.00;100698.63;5020427;28;20044;-75
2021/04/03 06:37:28;;;;;;;8.23;4.50;;;;;;;11.47;100.00;100707.22;5034296;28;20025;-74
2021/04/03 06:40:14;;;;;;;5.78;4.30;;;;;;;11.87;100.00;100705.50;5019159;28;20443;-75
2021/04/03 06:42:59;;;;;;;7.30;4.47;;;;;;;11.64;100.00;100713.88;5035343;28;20091;-75
2021/04/03 06:45:48;;;;;;;7.82;4.40;;;;;;;12.10;100.00;100701.41;5034386;28;20079;-75
2021/04/03 06:48:36;;;;;;;10.48;4.60;;;;;;;12.04;100.00;100701.59;5033714;28;20358;-76
2021/04/03 06:51:23;;;;;;;9.32;4.70;;;;;;;12.11;100.00;100705.78;5035447;28;20025;-75
2021/04/03 06:54:10;;;;;;;10.40;4.43;;;;;;;12.26;100.00;100707.19;5034589;28;20480;-75
2021/04/03 06:56:58;;;;;;;5.50;3.80;;;;;;;12.30;100.00;100708.84;5034137;28;20036;-75
2021/04/03 06:59:43;;;;;;;7.10;4.47;;;;;;;12.22;100.00;100709.00;5033256;28;20584;-74
2021/04/03 07:02:32;;;;;;;7.70;4.80;;;;;;;12.94;100.00;100704.50;5034314;28;20081;-75
2021/04/03 07:05:19;;;;;;;6.60;4.40;;;;;;;13.78;97.34;100704.69;5034918;28;20107;-74
2021/04/03 07:08:07;;;;;;;7.18;4.22;;;;;;;12.92;98.01;100702.81;5033175;28;20035;-75
2021/04/03 07:10:53;;;;;;;9.02;4.68;;;;;;;13.15;100.00;100706.56;5032691;28;20037;-74
2021/04/03 07:13:39;;;;;;;7.10;4.60;;;;;;;12.76;100.00;100702.38;5033250;28;20400;-75
2021/04/03 07:16:27;;;;;;;7.78;4.55;;;;;;;13.18;99.90;100701.22;5034198;28;20036;-75
2021/04/03 07:19:15;;;;;;;9.98;5.07;;;;;;;13.09;100.00;100690.97;5033214;28;20108;-75
2021/04/03 07:22:01;;;;;;;7.20;5.00;;;;;;;12.74;100.00;100687.53;5020523;28;20039;-73
2021/04/03 07:24:47;;;;;;;8.90;4.93;;;;;;;13.22;100.00;100694.97;5033227;28;20029;-75
2021/04/03 07:27:54;;;;;;;9.40;5.65;;;;;;;13.07;100.00;100699.81;5034245;28;20116;-74
2021/04/03 07:30:43;;;;;;;10.00;5.72;;;;;;;13.06;100.00;100690.19;5033738;28;20025;-75
2021/04/03 07:33:29;;;;;;;7.85;6.20;;;;;;;13.41;100.00;100683.00;5020066;28;20040;-75
2021/04/03 07:36:38;;;;;;;9.10;6.22;;;;;;;13.82;99.58;100685.25;5032294;28;20025;-76
2021/04/03 07:39:35;;;;;;;9.95;6.43;;;;;;;13.32;100.00;100685.03;5033068;28;20021;-75
2021/04/03 07:42:35;;;;;;;10.05;6.70;;;;;;;13.64;100.00;100684.94;5033795;28;20442;-75
2021/04/03 07:45:43;;;;;;;10.98;6.68;;;;;;;13.07;100.00;100692.75;5036925;28;20406;-75
2021/04/03 07:48:46;;;;;;;14.32;9.60;;;;;;;13.81;100.00;100691.44;5036779;28;20029;-76
2021/04/03 07:51:32;;;;;;;9.13;5.88;;;;;;;13.38;100.00;100692.78;5037099;28;20025;-75
2021/04/03 07:54:26;;;;;;;11.27;6.85;;;;;;;13.82;100.00;100692.25;5037881;28;20025;-75
2021/04/03 07:57:12;;;;;;;12.18;7.35;;;;;;;13.68;100.00;100702.38;5037297;28;20080;-75
2021/04/03 07:59:58;;;;;;;13.70;7.15;;;;;;;13.60;100.00;100694.72;5037701;28;20029;-75
2021/04/03 08:02:44;;;;;;;11.48;7.00;;;;;;;13.89;100.00;100691.16;5037056;28;20049;-74
2021/04/03 08:05:30;;;;;;;10.20;7.25;;;;;;;13.79;100.00;100689.75;5037314;28;20029;-75
2021/04/03 08:08:19;;;;;;;14.88;8.10;;;;;;;14.11;100.00;100673.78;5037656;28;20519;-75
2021/04/03 08:11:22;;;;;;;13.82;7.82;;;;;;;14.54;100.00;100677.59;5035959;28;20064;-74
2021/04/03 08:14:11;;;;;;;13.27;7.78;;;;;;;14.42;100.00;100678.03;5036808;28;20091;-75
2021/04/03 08:16:57;;;;;;;16.02;8.20;;;;;;;14.61;100.00;100668.56;5035879;28;20105;-75
2021/04/03 08:19:46;;;;;;;13.15;8.05;;;;;;;14.86;99.06;100673.00;5037967;28;20026;-75
2021/04/03 08:22:34;;;;;;;10.32;7.78;;;;;;;14.25;100.00;100677.72;5036210;28;20025;-75
2021/04/03 08:25:20;;;;;;;15.13;8.05;;;;;;;14.57;100.00;100674.00;5036737;28;20032;-75
2021/04/03 08:28:21;;;;;;;11.52;7.90;;;;;;;14.91;100.00;100676.31;5035973;28;20040;-75
2021/04/03 08:31:28;;;;;;;14.05;8.40;;;;;;;14.97;100.00;100678.72;5037384;28;20454;-76
2021/04/03 08:34:13;;;;;;;10.93;8.10;;;;;;;14.08;100.00;100679.16;5022417;28;20040;-76
2021/04/03 08:36:59;;;;;;;11.52;7.70;;;;;;;14.47;100.00;100680.50;5037283;28;20037;-74
2021/04/03 08:39:45;;;;;;;12.32;8.35;;;;;;;14.24;100.00;100683.88;5036704;28;20469;-76
2021/04/03 08:42:33;;;;;;;14.43;8.70;;;;;;;14.50;100.00;100691.81;5037272;28;20087;-74
2021/04/03 08:45:19;;;;;;;11.23;8.27;;;;;;;15.71;100.00;100685.59;5022330;28;20071;-76
2021/04/03 08:48:09;;;;;;;16.98;8.50;;;;;;;15.99;96.91;100680.13;5022518;28;20037;-74
2021/04/03 08:50:56;;;;;;;14.57;9.00;;;;;;;15.65;98.14;100682.34;5037140;28;20036;-74
2021/04/03 08:53:47;;;;;;;12.60;8.70;;;;;;;15.28;100.00;100671.41;5036021;28;20030;-74
2021/04/03 08:56:37;;;;;;;13.52;8.70;;;;;;;15.33;100.00;100664.19;5037136;28;20365;-74
2021/04/03 08:59:22;;;;;;;15.30;9.32;;;;;;;15.35;100.00;100663.25;5036773;28;20032;-75
2021/04/03 09:02:08;;;;;;;25.08;15.88;;;;;;;15.72;100.00;100662.69;5021277;28;20050;-74
2021/04/03 09:04:54;;;;;;;17.90;9.07;;;;;;;15.73;99.94;100657.34;5036795;28;20053;-74
2021/04/03 09:07:41;;;;;;;14.65;8.65;;;;;;;16.18;98.69;100652.84;5035261;28;20022;-75
2021/04/03 09:10:37;;;;;;;15.82;9.77;;;;;;;16.02;96.95;100658.81;5036492;28;20029;-74
2021/04/03 09:13:30;;;;;;;14.70;9.57;;;;;;;15.89;100.00;100649.69;5036298;28;20454;-75
2021/04/03 09:16:18;;;;;;;18.88;9.30;;;;;;;15.81;100.00;100657.91;5035324;28;20029;-75
2021/04/03 09:19:05;;;;;;;15.75;11.38;;;;;;;16.37;99.60;100660.88;5036269;28;20018;-74
2021/04/03 09:21:50;;;;;;;18.58;10.65;;;;;;;16.16;100.00;100654.69;5035722;28;20180;-74
2021/04/03 09:24:42;;;;;;;14.88;9.48;;;;;;;16.70;96.45;100656.84;5035650;28;20037;-75
2021/04/03 09:27:28;;;;;;;11.90;8.43;;;;;;;16.87;95.16;100654.31;5036250;28;20108;-74
2021/04/03 09:30:14;;;;;;;14.88;8.75;;;;;;;16.62;96.55;100646.59;5034971;28;20025;-75
2021/04/03 09:33:24;;;;;;;12.90;8.35;;;;;;;16.39;96.21;100643.19;5035664;28;20492;-75
2021/04/03 09:36:12;;;;;;;12.88;8.48;;;;;;;16.88;96.74;100645.47;5034652;28;20539;-74
2021/04/03 09:38:58;;;;;;;13.38;8.75;;;;;;;16.56;97.00;100643.34;5035889;28;20025;-74
2021/04/03 09:41:54;;;;;;;16.23;9.13;;;;;;;16.87;96.83;100641.94;5036023;28;20041;-75
2021/04/03 09:44:45;;;;;;;11.48;8.30;;;;;;;17.04;92.95;100639.41;5036722;28;20528;-74
2021/04/03 09:47:31;;;;;;;11.13;7.47;;;;;;;17.27;92.65;100641.00;5020771;28;20377;-74
2021/04/03 09:50:17;;;;;;;13.73;8.15;;;;;;;17.23;93.71;100631.47;5035571;28;20522;-75
2021/04/03 09:53:07;;;;;;;13.18;8.43;;;;;;;17.41;91.50;100633.31;5035188;28;20382;-75
2021/04/03 09:55:53;;;;;;;14.98;9.13;;;;;;;17.47;91.85;100636.53;5034784;28;20343;-76
2021/04/03 09:58:38;;;;;;;13.43;8.73;;;;;;;17.60;92.05;100626.25;5035009;28;20171;-75
2021/04/03 10:01:27;;;;;;;16.70;9.10;;;;;;;18.12;89.45;100628.03;5021168;28;20072;-75
2021/04/03 10:04:13;;;;;;;12.00;8.88;;;;;;;17.61;91.77;100614.69;5020862;28;20399;-75
2021/04/03 10:06:59;;;;;;;13.90;9.45;;;;;;;17.44;91.76;100612.00;5035365;28;20124;-74
2021/04/03 10:09:45;;;;;;;14.43;9.80;;;;;;;17.09;96.08;100610.09;5020071;28;20036;-77
2021/04/03 10:12:31;;;;;;;15.63;9.45;;;;;;;17.60;95.30;100613.00;5021896;28;20150;-75
2021/04/03 10:15:18;;;;;;;13.48;10.32;;;;;;;17.46;97.14;100603.03;5035238;28;20025;-75
2021/04/03 10:18:05;;;;;;;16.45;10.80;;;;;;;18.14;92.53;100615.59;5034143;28;20068;-75
2021/04/03 10:20:50;;;;;;;13.32;9.38;;;;;;;18.01;92.75;100609.19;5034668;28;20115;-74
2021/04/03 10:23:36;;;;;;;17.02;10.05;;;;;;;17.48;94.81;100610.94;5034536;28;20029;-74
2021/04/03 10:26:22;;;;;;;14.77;10.07;;;;;;;17.99;93.63;100611.03;5034395;28;20026;-76
2021/04/03 10:29:08;;;;;;;13.23;9.27;;;;;;;18.51;90.69;100599.56;5033939;28;20037;-75
2021/04/03 10:31:54;;;;;;;13.25;9.32;;;;;;;18.71;89.51;100607.34;5034232;28;20504;-76
2021/04/03 10:34:40;;;;;;;12.15;9.52;;;;;;;18.31;91.17;100607.63;5033486;28;20355;-76
2021/04/03 10:37:26;;;;;;;19.35;9.77;;;;;;;18.68;89.57;100607.50;5033752;28;20401;-75
2021/04/03 10:40:12;;;;;;;18.05;10.82;;;;;;;18.58;89.51;100616.88;5033633;28;20041;-75
2021/04/03 10:42:58;;;;;;;17.35;10.25;;;;;;;18.70;89.19;100617.09;5033903;28;20101;-75
2021/04/03 10:45:44;;;;;;;14.63;9.88;;;;;;;18.85;88.68;100613.63;5034716;28;20044;-75
2021/04/03 10:48:30;;;;;;;16.80;9.80;;;;;;;18.50;90.55;100611.09;5033743;28;20057;-75
2021/04/03 10:51:15;;;;;;;16.60;9.70;;;;;;;17.99;92.29;100605.72;5020465;28;20033;-75
2021/04/03 10:54:03;;;;;;;17.00;10.88;;;;;;;18.00;92.88;100602.13;5034885;28;20030;-74
2021/04/03 10:56:49;;;;;;;13.52;10.60;;;;;;;18.19;92.08;100597.66;5033826;28;20063;-75
2021/04/03 10:59:35;;;;;;;15.10;10.23;;;;;;;18.27;92.42;100593.69;5033464;28;20029;-76
2021/04/03 11:02:21;;;;;;;16.48;11.20;;;;;;;17.75;96.25;100593.69;5033467;28;20144;-75
2021/04/03 11:05:07;;;;;;;16.42;11.00;;;;;;;17.61;98.20;100590.84;5033887;28;20029;-76
2021/04/03 11:07:53;;;;;;;16.20;11.15;;;;;;;17.74;99.06;100587.53;5032829;28;20045;-75
2021/04/03 11:10:39;;;;;;;21.15;10.85;;;;;;;17.72;99.58;100592.03;5033827;28;20029;-74
2021/04/03 11:13:24;;;;;;;18.65;10.52;;;;;;;17.93;98.38;100598.09;5033333;28;20025;-75
2021/04/03 11:16:10;;;;;;;14.90;11.32;;;;;;;17.52;99.87;100594.78;5018766;28;20112;-75
2021/04/03 11:18:56;;;;;;;18.05;10.68;;;;;;;17.39;100.00;100590.09;5018287;28;20104;-75
2021/04/03 11:21:43;;;;;;;14.93;10.80;;;;;;;17.81;97.56;100586.28;5033076;28;20049;-75
2021/04/03 11:24:29;;;;;;;16.27;10.82;;;;;;;18.28;95.24;100584.78;5019706;28;20039;-75
2021/04/03 11:27:14;;;;;;;17.73;12.00;;;;;;;18.27;95.14;100575.13;5032781;28;20439;-76
2021/04/03 11:30:13;;;;;;;18.85;12.02;;;;;;;18.78;91.91;100567.09;5033709;28;20040;-74
2021/04/03 11:32:59;;;;;;;20.55;11.23;;;;;;;18.88;91.50;100562.16;5033130;28;20390;-75
2021/04/03 11:35:44;;;;;;;16.33;11.43;;;;;;;18.45;91.62;100566.22;5033607;28;20026;-74
2021/04/03 11:38:30;;;;;;;14.10;10.40;;;;;;;18.34;93.09;100562.44;5033353;28;20052;-74
2021/04/03 11:41:16;;;;;;;13.93;10.10;;;;;;;18.29;93.20;100557.31;5032357;28;20025;-75
2021/04/03 11:44:02;;;;;;;17.73;10.45;;;;;;;18.57;92.87;100554.13;5019362;28;20029;-74
2021/04/03 11:46:48;;;;;;;14.35;10.32;;;;;;;18.90;90.38;100539.06;5033258;28;20469;-75
2021/04/03 11:49:33;;;;;;;23.80;16.08;;;;;;;18.96;90.29;100541.38;5033624;28;20192;-74
2021/04/03 11:52:19;;;;;;;14.25;9.90;;;;;;;19.35;87.69;100535.69;5033328;28;20033;-75
2021/04/03 11:55:07;;;;;;;12.63;9.85;;;;;;;19.19;87.45;100528.56;5018787;28;20454;-75
2021/04/03 11:57:53;;;;;;;14.93;9.45;;;;;;;19.17;87.39;100516.31;5032447;28;20106;-75
2021/04/03 12:00:39;;;;;;;16.38;9.80;;;;;;;17.86;94.44;100519.81;5032558;28;20025;-75
2021/04/03 12:03:25;;;;;;;20.33;10.07;;;;;;;18.34;93.84;100512.03;5032470;28;20060;-74
2021/04/03 12:06:11;;;;;;;13.63;9.30;;;;;;;18.42;92.69;100516.00;5032715;28;20022;-78
2021/04/03 12:08:56;;;;;;;13.93;9.90;;;;;;;18.57;89.63;100509.88;5033512;28;20029;-76
2021/04/03 12:11:42;;;;;;;14.05;10.00;;;;;;;18.67;89.80;100505.78;5032152;28;20123;-75
2021/04/03 12:14:28;;;;;;;16.30;9.77;;;;;;;19.09;88.41;100511.41;5019015;28;20415;-75
2021/04/03 12:17:14;;;;;;;14.30;10.10;;;;;;;19.32;87.81;100501.34;5018677;28;20508;-75
2021/04/03 12:19:59;;;;;;;16.10;10.05;;;;;;;19.32;85.71;100502.19;5019001;28;20115;-76
2021/04/03 12:22:46;;;;;;;14.93;10.23;;;;;;;18.03;91.47;100501.25;5018622;28;20387;-75
2021/04/03 12:25:31;;;;;;;17.88;10.63;;;;;;;18.83;89.46;100489.88;5032628;28;20044;-74
2021/04/03 12:28:17;;;;;;;13.35;10.20;;;;;;;19.00;87.59;100487.16;5033819;28;20029;-75
2021/04/03 12:31:03;;;;;;;13.65;10.35;;;;;;;18.95;87.50;100481.25;5021389;28;20033;-75
2021/04/03 12:33:49;;;;;;;15.90;10.57;;;;;;;19.14;86.63;100482.78;5035306;28;20033;-75
2021/04/03 12:36:34;;;;;;;15.68;10.50;;;;;;;19.11;86.95;100485.63;5037137;28;20022;-75
2021/04/03 12:39:20;;;;;;;15.40;11.00;;;;;;;19.04;87.70;100472.75;5036461;28;20026;-74
2021/04/03 12:42:07;;;;;;;17.98;10.68;;;;;;;19.27;85.54;100467.06;5036290;28;20021;-74
2021/04/03 12:44:53;;;;;;;15.30;11.60;;;;;;;18.70;88.62;100479.06;5035738;28;20041;-75
2021/04/03 12:47:39;;;;;;;16.50;10.35;;;;;;;18.50;90.81;100486.41;5035832;28;20171;-75